Arendtsville, Pennsylvania
Current Conditions -  °F | °C
As of 9:53 PM on Monday 26 Jan 2015 (Local Time) from KRYT Reporting Station
Light Snow Light Snow  
Wind Chill: 24°   Ceiling: 1500
Heat Index: 24°   Visibility: 1.2mi
Dew Point: 20°   Wind: 0mph
Humidity: 84%   Direction: NA
Pressure: 29.76"   Gusts: NA
Location:  39.92°N, 77.3°W
Report Text: KRYT 270253Z AUTO 00000KT 1 1/4SM -SN BR BKN015 OVC020 M04/M07 A2976 RMK AO2 SLP097 P0001 60006 T10441067 51008 $
Loading
Personal Weather Stations






























Interactive Weather Map New forecast layout! Learn more

10-Day Weather Forecast

Advertisements
Track Severe Weather on mobile